Pago Pago, AS

3:09 PM SST on July 29, 2014 (GMT -1100)
Kona International At Keahole (PHKO) Elev 43 ft | 19.74 °N, 156.05 °W | Change Station

Current weather conditions updated 16 minutes ago

Mostly Cloudy
Mostly Cloudy
85 °F
Feels Like 91 °F
N
16
Wind Variable Wind from SSW

Today is forecast to be nearly the same temperature as yesterday. Rain.

Today
High -- | Low -- °F
--% Chance of Precip.
Yesterday
High -- | Low -- °F
Precip. -- in
6:45 AM 6:13 PM
Waxing Crescent, 9% visible
Pressure 29.95 in
Visibility 10.0 miles
Clouds Mostly Cloudy 5000 ft
Heat Index 91 °F
Dew Point 72 °F
Humidity 65%
Rainfall 0.00 in
Snow Depth Not available.
UV 3 out of 12
Pollen Not available.
Air Quality Not available.
Flu Activity Not available.
METAR PHKO 300153Z 20014KT 10SM BKN050 29/22 A2994 RMK AO2 SLP140 T02940222

More Conditions Fewer Conditions

Pressure 29.95 in
Visibility 10.0 miles
Clouds Mostly Cloudy 5000 ft
Heat Index 91 °F
Dew Point 72 °F
Humidity 65%
Rainfall 0.00 in
Snow Depth Not available.
UV 3 out of 12
Pollen Not available.
Air Quality Not available.
Flu Activity Not available.
METAR PHKO 300153Z 20014KT 10SM BKN050 29/22 A2994 RMK AO2 SLP140 T02940222

More Conditions Fewer Conditions

10-Day Weather Forecast

Almanac

Astronomy

Jul. 29, 2014 Rise Set
Actual Time 6:45 AM SST 6:13 PM SST
Civil Twilight 6:22 AM SST 6:35 PM SST
Nautical Twilight 5:56 AM SST 7:01 PM SST
Astronomical Twilight 5:31 AM SST 7:27 PM SST
Moon 8:31 AM SST (7/29) 8:43 PM SST (7/29)
Length of Visible Light 12h 13m
Length of Day
11h 28m
Tomorrow will be 0m 33s longer.
Waxing Crescent, 9% of the Moon is Illuminated
Today
Waxing Crescent
Aug 3
First Quarter
Aug 10
Full
Aug 17
Last Quarter
Aug 25
New

Community

WunderPhotos

Upload Photos

1,738,953 photos uploaded!

Nearby

Snow Depth

Station Depth Elevation
No new snow has been reported.

Earthquake Activity

City Distance Mag. Time & Date
No recent earthquake activity has been reported nearby.
Minimum magnitude displayed is 2.5.

Coastal Water Temperatures

Place Temperature
No Stations Reporting

Nearby Weather Stations

There are no personal weather stations in this area.